Charlottesville Albemarle Airport
KCHO : now visible

Airfield :











YOU CAN JOIN US ON...

 
LOGIN :

Register | Disclaimer

   EN    FR    IT 

 









Legend :    VFR   Marginal VFR   IFR   Intensive IFR   Very Intensive IFR
Visi :
Ceiling :
>= 8 km
>= 3000ft
5 to 8 km
1000 to 3000 ft
1500m to 5 km
500 to 1000 ft
800 to 1500m
200 to 500 ft
< 800m
< 200 ft
Symbols :   Thunderstorms  Fog  Heavy snow  Heavy precipitations  Wind > 20 kt






- Airport Elevation : 639 ft
- IATA code : CHO


KCHO - Charlottesville Albemarle

CURRENT METAR :
  • 061148Z 00000KT 10SM SCT001 22/21 A2991 RMK AO2

EXPIRED METARs :
  • 061138Z 00000KT 8SM BKN001 22/21 A2991 RMK AO2 T02170206
  • 061053Z 00000KT 1/4SM FG VV001 21/19 A2991 RMK AO2 SLP121 T02110194
  • 060953Z 27003KT 1/4SM FG VV001 21/19 A2989 RMK AO2 SLP114 T02110194

TAF KCHO
Valid from the 06 at 12:00 until the 07 at 12:00 UTC


061153Z 0612/0712 00000KT P6SM SCT010
FM061400 29005KT P6SM SCT100
FM061800 29007KT P6SM BKN040 BKN250
FM070200 30003KT P6SM FEW060 SCT250
KZDC FIR / North America



MET'MAP, your aeronautical weather chart ! - Copyright ORBIFLY December 2007 - Disclaimer

ORBIFLY MET'MAP TEAM :

Programming & Development : Alexandra Zaïnal
Concept & original design : Baudouin d'Aumeries
Assistance for programming : Marc-Olivier Méhu
Technical & hardware support : Manuel Goepfert

Contact : metmap@orbifly.com




SOURCES & CREDITS :

   NOAA       Earth
Advisory